sensor_id;sensor_type;location;lat;lon;timestamp;P1;durP1;ratioP1;P2;durP2;ratioP2
29730;SDS011;16639;51.488;0.152;2023-07-29T00:02:15;6.15;;;2.25;;
29730;SDS011;16639;51.488;0.152;2023-07-29T00:04:42;4.68;;;2.05;;
29730;SDS011;16639;51.488;0.152;2023-07-29T00:07:10;5.60;;;2.17;;
29730;SDS011;16639;51.488;0.152;2023-07-29T00:09:39;8.07;;;2.53;;
29730;SDS011;16639;51.488;0.152;2023-07-29T00:12:07;6.30;;;2.03;;
29730;SDS011;16639;51.488;0.152;2023-07-29T00:14:36;7.28;;;2.67;;
29730;SDS011;16639;51.488;0.152;2023-07-29T00:17:03;5.05;;;1.70;;
29730;SDS011;16639;51.488;0.152;2023-07-29T00:19:31;4.65;;;2.28;;
29730;SDS011;16639;51.488;0.152;2023-07-29T00:21:59;3.28;;;1.73;;
29730;SDS011;16639;51.488;0.152;2023-07-29T00:24:26;4.63;;;1.90;;
29730;SDS011;16639;51.488;0.152;2023-07-29T00:26:54;4.43;;;1.90;;
29730;SDS011;16639;51.488;0.152;2023-07-29T00:29:22;7.10;;;2.67;;
29730;SDS011;16639;51.488;0.152;2023-07-29T00:31:49;2.60;;;1.88;;
29730;SDS011;16639;51.488;0.152;2023-07-29T00:34:17;6.03;;;1.70;;
29730;SDS011;16639;51.488;0.152;2023-07-29T00:36:46;6.55;;;1.70;;
29730;SDS011;16639;51.488;0.152;2023-07-29T00:39:14;3.90;;;1.65;;
29730;SDS011;16639;51.488;0.152;2023-07-29T00:41:42;4.57;;;1.60;;
29730;SDS011;16639;51.488;0.152;2023-07-29T00:44:09;5.00;;;1.60;;
29730;SDS011;16639;51.488;0.152;2023-07-29T00:46:37;3.78;;;1.58;;
29730;SDS011;16639;51.488;0.152;2023-07-29T00:49:06;2.55;;;1.50;;
29730;SDS011;16639;51.488;0.152;2023-07-29T00:51:33;6.72;;;1.95;;
29730;SDS011;16639;51.488;0.152;2023-07-29T00:54:01;4.15;;;1.98;;
29730;SDS011;16639;51.488;0.152;2023-07-29T00:56:28;4.78;;;1.65;;
29730;SDS011;16639;51.488;0.152;2023-07-29T00:58:56;6.65;;;1.98;;
29730;SDS011;16639;51.488;0.152;2023-07-29T01:01:28;6.20;;;3.30;;
29730;SDS011;16639;51.488;0.152;2023-07-29T01:03:57;9.82;;;3.60;;
29730;SDS011;16639;51.488;0.152;2023-07-29T01:15:23;9.32;;;3.30;;
29730;SDS011;16639;51.488;0.152;2023-07-29T01:17:54;6.53;;;3.22;;
29730;SDS011;16639;51.488;0.152;2023-07-29T01:20:26;3.50;;;2.70;;
29730;SDS011;16639;51.488;0.152;2023-07-29T01:22:54;4.63;;;2.50;;
29730;SDS011;16639;51.488;0.152;2023-07-29T01:25:22;7.97;;;3.03;;
29730;SDS011;16639;51.488;0.152;2023-07-29T01:27:50;4.07;;;2.92;;
29730;SDS011;16639;51.488;0.152;2023-07-29T01:30:19;6.20;;;2.83;;
29730;SDS011;16639;51.488;0.152;2023-07-29T01:32:53;7.18;;;3.28;;
29730;SDS011;16639;51.488;0.152;2023-07-29T01:38:20;3.83;;;2.72;;
29730;SDS011;16639;51.488;0.152;2023-07-29T01:40:51;4.82;;;2.95;;
29730;SDS011;16639;51.488;0.152;2023-07-29T01:43:20;7.70;;;3.22;;
29730;SDS011;16639;51.488;0.152;2023-07-29T01:45:50;7.97;;;3.42;;
29730;SDS011;16639;51.488;0.152;2023-07-29T01:48:18;7.13;;;2.80;;
29730;SDS011;16639;51.488;0.152;2023-07-29T01:50:45;5.55;;;3.05;;
29730;SDS011;16639;51.488;0.152;2023-07-29T01:53:12;9.93;;;3.13;;
29730;SDS011;16639;51.488;0.152;2023-07-29T01:55:41;5.10;;;3.15;;
29730;SDS011;16639;51.488;0.152;2023-07-29T01:58:09;4.15;;;3.00;;
29730;SDS011;16639;51.488;0.152;2023-07-29T02:00:36;9.85;;;3.60;;
29730;SDS011;16639;51.488;0.152;2023-07-29T02:03:04;5.68;;;3.65;;
29730;SDS011;16639;51.488;0.152;2023-07-29T02:05:31;4.40;;;3.03;;
29730;SDS011;16639;51.488;0.152;2023-07-29T02:07:59;9.02;;;3.20;;
29730;SDS011;16639;51.488;0.152;2023-07-29T02:10:26;6.93;;;3.70;;
29730;SDS011;16639;51.488;0.152;2023-07-29T02:12:56;9.80;;;3.47;;
29730;SDS011;16639;51.488;0.152;2023-07-29T02:15:23;5.55;;;3.00;;
29730;SDS011;16639;51.488;0.152;2023-07-29T02:17:51;8.25;;;3.60;;
29730;SDS011;16639;51.488;0.152;2023-07-29T02:20:19;5.78;;;3.10;;
29730;SDS011;16639;51.488;0.152;2023-07-29T02:22:47;7.18;;;3.58;;
29730;SDS011;16639;51.488;0.152;2023-07-29T02:25:15;5.90;;;3.53;;
29730;SDS011;16639;51.488;0.152;2023-07-29T02:27:42;6.07;;;2.78;;
29730;SDS011;16639;51.488;0.152;2023-07-29T02:30:10;8.10;;;3.58;;
29730;SDS011;16639;51.488;0.152;2023-07-29T02:32:39;5.70;;;2.80;;
29730;SDS011;16639;51.488;0.152;2023-07-29T02:35:07;5.80;;;2.72;;
29730;SDS011;16639;51.488;0.152;2023-07-29T02:37:34;5.63;;;3.08;;
29730;SDS011;16639;51.488;0.152;2023-07-29T02:40:02;4.82;;;2.50;;
29730;SDS011;16639;51.488;0.152;2023-07-29T02:42:30;8.77;;;3.65;;
29730;SDS011;16639;51.488;0.152;2023-07-29T02:44:59;5.85;;;3.90;;
29730;SDS011;16639;51.488;0.152;2023-07-29T02:47:26;6.63;;;3.53;;
29730;SDS011;16639;51.488;0.152;2023-07-29T02:49:53;6.93;;;3.85;;
29730;SDS011;16639;51.488;0.152;2023-07-29T02:52:21;10.27;;;4.85;;
29730;SDS011;16639;51.488;0.152;2023-07-29T02:54:48;11.05;;;4.95;;
29730;SDS011;16639;51.488;0.152;2023-07-29T02:57:16;13.40;;;6.28;;
29730;SDS011;16639;51.488;0.152;2023-07-29T02:59:44;13.23;;;7.50;;
29730;SDS011;16639;51.488;0.152;2023-07-29T03:02:12;16.67;;;7.20;;
29730;SDS011;16639;51.488;0.152;2023-07-29T03:04:42;16.73;;;7.93;;
29730;SDS011;16639;51.488;0.152;2023-07-29T03:07:10;22.30;;;10.02;;
29730;SDS011;16639;51.488;0.152;2023-07-29T03:09:38;18.73;;;9.35;;
29730;SDS011;16639;51.488;0.152;2023-07-29T03:12:07;20.30;;;11.10;;
29730;SDS011;16639;51.488;0.152;2023-07-29T03:14:35;18.10;;;8.88;;
29730;SDS011;16639;51.488;0.152;2023-07-29T03:17:03;14.07;;;6.53;;
29730;SDS011;16639;51.488;0.152;2023-07-29T03:19:33;10.63;;;6.50;;
29730;SDS011;16639;51.488;0.152;2023-07-29T03:22:02;21.13;;;7.28;;
29730;SDS011;16639;51.488;0.152;2023-07-29T03:24:29;11.63;;;5.30;;
29730;SDS011;16639;51.488;0.152;2023-07-29T03:26:57;8.85;;;5.38;;
29730;SDS011;16639;51.488;0.152;2023-07-29T03:29:24;10.10;;;4.72;;
29730;SDS011;16639;51.488;0.152;2023-07-29T03:31:51;9.55;;;4.60;;
29730;SDS011;16639;51.488;0.152;2023-07-29T03:34:19;7.13;;;4.32;;
29730;SDS011;16639;51.488;0.152;2023-07-29T03:36:46;6.97;;;5.00;;
29730;SDS011;16639;51.488;0.152;2023-07-29T03:39:14;6.07;;;4.13;;
29730;SDS011;16639;51.488;0.152;2023-07-29T03:41:42;6.88;;;4.40;;
29730;SDS011;16639;51.488;0.152;2023-07-29T03:44:09;5.13;;;4.20;;
29730;SDS011;16639;51.488;0.152;2023-07-29T03:46:37;11.65;;;4.55;;
29730;SDS011;16639;51.488;0.152;2023-07-29T03:49:05;5.97;;;4.15;;
29730;SDS011;16639;51.488;0.152;2023-07-29T03:51:32;12.27;;;4.50;;
29730;SDS011;16639;51.488;0.152;2023-07-29T03:54:00;8.32;;;4.55;;
29730;SDS011;16639;51.488;0.152;2023-07-29T03:56:28;5.80;;;4.15;;
29730;SDS011;16639;51.488;0.152;2023-07-29T03:59:02;8.90;;;4.43;;
29730;SDS011;16639;51.488;0.152;2023-07-29T04:01:32;6.10;;;4.03;;
29730;SDS011;16639;51.488;0.152;2023-07-29T04:04:00;11.98;;;4.45;;
29730;SDS011;16639;51.488;0.152;2023-07-29T04:06:28;10.50;;;4.78;;
29730;SDS011;16639;51.488;0.152;2023-07-29T04:08:55;13.32;;;3.97;;
29730;SDS011;16639;51.488;0.152;2023-07-29T04:11:23;7.75;;;4.97;;
29730;SDS011;16639;51.488;0.152;2023-07-29T04:13:51;7.18;;;3.85;;
29730;SDS011;16639;51.488;0.152;2023-07-29T04:16:18;6.70;;;4.05;;
29730;SDS011;16639;51.488;0.152;2023-07-29T04:18:46;12.80;;;3.60;;
29730;SDS011;16639;51.488;0.152;2023-07-29T04:21:13;5.40;;;3.58;;
29730;SDS011;16639;51.488;0.152;2023-07-29T04:23:41;8.20;;;3.75;;
29730;SDS011;16639;51.488;0.152;2023-07-29T04:26:08;4.93;;;3.70;;
29730;SDS011;16639;51.488;0.152;2023-07-29T04:28:35;6.75;;;3.85;;
29730;SDS011;16639;51.488;0.152;2023-07-29T04:31:03;9.00;;;4.30;;
29730;SDS011;16639;51.488;0.152;2023-07-29T04:33:30;12.50;;;4.15;;
29730;SDS011;16639;51.488;0.152;2023-07-29T04:36:02;7.28;;;3.97;;
29730;SDS011;16639;51.488;0.152;2023-07-29T04:38:30;8.23;;;4.07;;
29730;SDS011;16639;51.488;0.152;2023-07-29T04:41:01;9.07;;;4.25;;
29730;SDS011;16639;51.488;0.152;2023-07-29T04:43:32;4.93;;;3.67;;
29730;SDS011;16639;51.488;0.152;2023-07-29T04:45:59;14.23;;;4.65;;
29730;SDS011;16639;51.488;0.152;2023-07-29T04:48:27;7.28;;;4.03;;
29730;SDS011;16639;51.488;0.152;2023-07-29T04:50:56;6.75;;;4.53;;
29730;SDS011;16639;51.488;0.152;2023-07-29T04:53:23;10.10;;;4.95;;
29730;SDS011;16639;51.488;0.152;2023-07-29T04:55:51;9.50;;;5.10;;
29730;SDS011;16639;51.488;0.152;2023-07-29T04:58:18;10.30;;;4.88;;
29730;SDS011;16639;51.488;0.152;2023-07-29T05:00:46;13.93;;;4.50;;
29730;SDS011;16639;51.488;0.152;2023-07-29T05:03:14;8.63;;;4.53;;
29730;SDS011;16639;51.488;0.152;2023-07-29T05:05:41;10.68;;;5.45;;
29730;SDS011;16639;51.488;0.152;2023-07-29T05:08:09;8.55;;;3.95;;
29730;SDS011;16639;51.488;0.152;2023-07-29T05:10:36;10.05;;;4.50;;
29730;SDS011;16639;51.488;0.152;2023-07-29T05:13:03;10.90;;;3.95;;
29730;SDS011;16639;51.488;0.152;2023-07-29T05:15:31;11.98;;;4.25;;
29730;SDS011;16639;51.488;0.152;2023-07-29T05:17:59;7.05;;;3.78;;
29730;SDS011;16639;51.488;0.152;2023-07-29T05:20:27;9.15;;;4.00;;
29730;SDS011;16639;51.488;0.152;2023-07-29T05:22:54;9.15;;;4.00;;
29730;SDS011;16639;51.488;0.152;2023-07-29T05:25:22;12.93;;;4.22;;
29730;SDS011;16639;51.488;0.152;2023-07-29T05:27:50;10.60;;;4.38;;
29730;SDS011;16639;51.488;0.152;2023-07-29T05:30:17;11.75;;;4.13;;
29730;SDS011;16639;51.488;0.152;2023-07-29T05:32:45;11.05;;;4.90;;
29730;SDS011;16639;51.488;0.152;2023-07-29T05:35:13;8.60;;;4.78;;
29730;SDS011;16639;51.488;0.152;2023-07-29T05:37:41;12.77;;;4.53;;
29730;SDS011;16639;51.488;0.152;2023-07-29T05:40:08;8.13;;;5.00;;
29730;SDS011;16639;51.488;0.152;2023-07-29T05:42:36;11.50;;;4.35;;
29730;SDS011;16639;51.488;0.152;2023-07-29T05:45:04;9.80;;;4.55;;
29730;SDS011;16639;51.488;0.152;2023-07-29T05:47:33;7.70;;;5.10;;
29730;SDS011;16639;51.488;0.152;2023-07-29T05:50:00;8.40;;;4.60;;
29730;SDS011;16639;51.488;0.152;2023-07-29T05:52:31;12.10;;;4.78;;
29730;SDS011;16639;51.488;0.152;2023-07-29T05:54:59;7.82;;;4.15;;
29730;SDS011;16639;51.488;0.152;2023-07-29T05:57:26;12.43;;;3.58;;
29730;SDS011;16639;51.488;0.152;2023-07-29T05:59:54;9.93;;;4.82;;
29730;SDS011;16639;51.488;0.152;2023-07-29T06:02:22;8.02;;;4.88;;
29730;SDS011;16639;51.488;0.152;2023-07-29T06:04:49;10.80;;;5.40;;
29730;SDS011;16639;51.488;0.152;2023-07-29T06:07:17;11.80;;;5.05;;
29730;SDS011;16639;51.488;0.152;2023-07-29T06:09:45;9.70;;;4.22;;
29730;SDS011;16639;51.488;0.152;2023-07-29T06:12:13;9.15;;;4.60;;
29730;SDS011;16639;51.488;0.152;2023-07-29T06:14:40;8.13;;;4.55;;
29730;SDS011;16639;51.488;0.152;2023-07-29T06:17:08;10.50;;;5.07;;
29730;SDS011;16639;51.488;0.152;2023-07-29T06:19:38;7.97;;;5.68;;
29730;SDS011;16639;51.488;0.152;2023-07-29T06:22:05;8.77;;;4.85;;
29730;SDS011;16639;51.488;0.152;2023-07-29T06:24:33;8.80;;;5.60;;
29730;SDS011;16639;51.488;0.152;2023-07-29T06:27:03;10.32;;;5.13;;
29730;SDS011;16639;51.488;0.152;2023-07-29T06:29:31;11.52;;;5.40;;
29730;SDS011;16639;51.488;0.152;2023-07-29T06:31:58;7.63;;;4.28;;
29730;SDS011;16639;51.488;0.152;2023-07-29T06:34:27;12.25;;;4.45;;
29730;SDS011;16639;51.488;0.152;2023-07-29T06:36:54;9.00;;;4.75;;
29730;SDS011;16639;51.488;0.152;2023-07-29T06:39:22;10.88;;;4.10;;
29730;SDS011;16639;51.488;0.152;2023-07-29T06:41:49;9.68;;;4.32;;
29730;SDS011;16639;51.488;0.152;2023-07-29T06:44:17;9.57;;;3.60;;
29730;SDS011;16639;51.488;0.152;2023-07-29T06:46:44;5.60;;;4.03;;
29730;SDS011;16639;51.488;0.152;2023-07-29T06:49:12;9.43;;;4.50;;
29730;SDS011;16639;51.488;0.152;2023-07-29T06:51:39;11.77;;;3.70;;
29730;SDS011;16639;51.488;0.152;2023-07-29T06:54:07;7.97;;;3.85;;
29730;SDS011;16639;51.488;0.152;2023-07-29T06:56:34;9.20;;;3.58;;
29730;SDS011;16639;51.488;0.152;2023-07-29T06:59:02;8.60;;;3.30;;
29730;SDS011;16639;51.488;0.152;2023-07-29T07:01:30;5.18;;;3.10;;
29730;SDS011;16639;51.488;0.152;2023-07-29T07:03:57;9.82;;;3.72;;
29730;SDS011;16639;51.488;0.152;2023-07-29T07:06:25;5.68;;;3.20;;
29730;SDS011;16639;51.488;0.152;2023-07-29T07:08:53;10.27;;;3.17;;
29730;SDS011;16639;51.488;0.152;2023-07-29T07:11:22;7.30;;;3.55;;
29730;SDS011;16639;51.488;0.152;2023-07-29T07:13:49;6.82;;;2.88;;
29730;SDS011;16639;51.488;0.152;2023-07-29T07:16:19;7.60;;;3.03;;
29730;SDS011;16639;51.488;0.152;2023-07-29T07:18:47;7.43;;;3.55;;
29730;SDS011;16639;51.488;0.152;2023-07-29T07:21:14;3.88;;;3.13;;
29730;SDS011;16639;51.488;0.152;2023-07-29T07:23:42;6.88;;;2.90;;
29730;SDS011;16639;51.488;0.152;2023-07-29T07:26:10;7.72;;;3.47;;
29730;SDS011;16639;51.488;0.152;2023-07-29T07:28:38;7.68;;;3.70;;
29730;SDS011;16639;51.488;0.152;2023-07-29T07:31:05;6.95;;;3.13;;
29730;SDS011;16639;51.488;0.152;2023-07-29T07:33:33;9.02;;;3.80;;
29730;SDS011;16639;51.488;0.152;2023-07-29T07:36:02;5.50;;;3.47;;
29730;SDS011;16639;51.488;0.152;2023-07-29T07:38:29;6.80;;;4.18;;
29730;SDS011;16639;51.488;0.152;2023-07-29T07:40:57;11.68;;;5.32;;
29730;SDS011;16639;51.488;0.152;2023-07-29T07:43:28;7.38;;;5.30;;
29730;SDS011;16639;51.488;0.152;2023-07-29T07:45:59;9.93;;;5.03;;
29730;SDS011;16639;51.488;0.152;2023-07-29T07:48:27;9.73;;;5.38;;
29730;SDS011;16639;51.488;0.152;2023-07-29T07:50:55;8.43;;;5.00;;
29730;SDS011;16639;51.488;0.152;2023-07-29T07:53:22;8.80;;;5.28;;
29730;SDS011;16639;51.488;0.152;2023-07-29T07:55:52;7.57;;;5.10;;
29730;SDS011;16639;51.488;0.152;2023-07-29T07:58:20;8.82;;;4.93;;
29730;SDS011;16639;51.488;0.152;2023-07-29T08:00:48;8.10;;;5.57;;
29730;SDS011;16639;51.488;0.152;2023-07-29T08:03:17;8.48;;;4.68;;
29730;SDS011;16639;51.488;0.152;2023-07-29T08:05:45;5.15;;;3.88;;
29730;SDS011;16639;51.488;0.152;2023-07-29T08:08:12;5.32;;;3.88;;
29730;SDS011;16639;51.488;0.152;2023-07-29T08:10:39;5.28;;;3.05;;
29730;SDS011;16639;51.488;0.152;2023-07-29T08:13:07;4.93;;;3.03;;
29730;SDS011;16639;51.488;0.152;2023-07-29T08:15:35;6.07;;;3.10;;
29730;SDS011;16639;51.488;0.152;2023-07-29T08:18:02;11.07;;;4.00;;
29730;SDS011;16639;51.488;0.152;2023-07-29T08:20:30;10.02;;;5.68;;
29730;SDS011;16639;51.488;0.152;2023-07-29T08:22:58;9.73;;;5.55;;
29730;SDS011;16639;51.488;0.152;2023-07-29T08:25:25;14.18;;;6.38;;
29730;SDS011;16639;51.488;0.152;2023-07-29T08:27:52;11.18;;;5.57;;
29730;SDS011;16639;51.488;0.152;2023-07-29T08:30:20;8.85;;;7.00;;
29730;SDS011;16639;51.488;0.152;2023-07-29T08:32:47;8.10;;;6.72;;
29730;SDS011;16639;51.488;0.152;2023-07-29T08:35:15;11.68;;;8.00;;
29730;SDS011;16639;51.488;0.152;2023-07-29T08:37:42;11.77;;;7.43;;
29730;SDS011;16639;51.488;0.152;2023-07-29T08:40:12;11.35;;;6.25;;
29730;SDS011;16639;51.488;0.152;2023-07-29T08:42:40;11.35;;;6.55;;
29730;SDS011;16639;51.488;0.152;2023-07-29T08:45:11;7.85;;;4.93;;
29730;SDS011;16639;51.488;0.152;2023-07-29T08:47:40;8.90;;;4.15;;
29730;SDS011;16639;51.488;0.152;2023-07-29T08:50:07;5.47;;;3.00;;
29730;SDS011;16639;51.488;0.152;2023-07-29T08:52:39;7.05;;;3.75;;
29730;SDS011;16639;51.488;0.152;2023-07-29T08:55:08;7.68;;;3.83;;
29730;SDS011;16639;51.488;0.152;2023-07-29T08:57:35;5.00;;;3.22;;
29730;SDS011;16639;51.488;0.152;2023-07-29T09:00:03;8.70;;;3.63;;
29730;SDS011;16639;51.488;0.152;2023-07-29T09:02:32;8.15;;;3.63;;
29730;SDS011;16639;51.488;0.152;2023-07-29T09:04:59;7.18;;;3.10;;
29730;SDS011;16639;51.488;0.152;2023-07-29T09:07:28;8.85;;;3.50;;
29730;SDS011;16639;51.488;0.152;2023-07-29T09:09:56;7.40;;;3.05;;
29730;SDS011;16639;51.488;0.152;2023-07-29T09:12:23;9.25;;;3.05;;
29730;SDS011;16639;51.488;0.152;2023-07-29T09:14:53;6.97;;;3.30;;
29730;SDS011;16639;51.488;0.152;2023-07-29T09:17:24;9.05;;;3.70;;
29730;SDS011;16639;51.488;0.152;2023-07-29T09:19:51;7.68;;;3.50;;
29730;SDS011;16639;51.488;0.152;2023-07-29T09:22:21;7.28;;;3.70;;
29730;SDS011;16639;51.488;0.152;2023-07-29T09:24:49;8.32;;;3.83;;
29730;SDS011;16639;51.488;0.152;2023-07-29T09:27:24;6.68;;;3.15;;
29730;SDS011;16639;51.488;0.152;2023-07-29T09:29:53;5.32;;;2.95;;
29730;SDS011;16639;51.488;0.152;2023-07-29T09:32:22;10.77;;;3.42;;
29730;SDS011;16639;51.488;0.152;2023-07-29T09:34:51;4.75;;;3.20;;
29730;SDS011;16639;51.488;0.152;2023-07-29T09:37:22;6.30;;;3.38;;
29730;SDS011;16639;51.488;0.152;2023-07-29T09:39:50;6.97;;;3.47;;
29730;SDS011;16639;51.488;0.152;2023-07-29T09:42:19;5.68;;;3.22;;
29730;SDS011;16639;51.488;0.152;2023-07-29T09:44:50;9.63;;;3.80;;
29730;SDS011;16639;51.488;0.152;2023-07-29T09:47:22;6.53;;;3.42;;
29730;SDS011;16639;51.488;0.152;2023-07-29T09:49:50;8.93;;;4.45;;
29730;SDS011;16639;51.488;0.152;2023-07-29T09:52:19;6.65;;;4.00;;
29730;SDS011;16639;51.488;0.152;2023-07-29T09:54:48;4.90;;;4.07;;
29730;SDS011;16639;51.488;0.152;2023-07-29T09:57:17;6.80;;;3.55;;
29730;SDS011;16639;51.488;0.152;2023-07-29T09:59:55;10.90;;;4.25;;
29730;SDS011;16639;51.488;0.152;2023-07-29T10:02:23;5.22;;;3.15;;
29730;SDS011;16639;51.488;0.152;2023-07-29T10:04:54;5.75;;;3.50;;
29730;SDS011;16639;51.488;0.152;2023-07-29T10:07:23;7.65;;;3.90;;
29730;SDS011;16639;51.488;0.152;2023-07-29T10:09:51;5.10;;;3.45;;
29730;SDS011;16639;51.488;0.152;2023-07-29T10:12:20;8.10;;;3.67;;
29730;SDS011;16639;51.488;0.152;2023-07-29T10:14:49;9.02;;;3.60;;
29730;SDS011;16639;51.488;0.152;2023-07-29T10:17:17;5.05;;;3.70;;
29730;SDS011;16639;51.488;0.152;2023-07-29T10:19:55;6.65;;;3.22;;
29730;SDS011;16639;51.488;0.152;2023-07-29T10:22:25;7.00;;;3.65;;
29730;SDS011;16639;51.488;0.152;2023-07-29T10:24:56;5.35;;;3.28;;
29730;SDS011;16639;51.488;0.152;2023-07-29T10:27:34;3.95;;;2.72;;
29730;SDS011;16639;51.488;0.152;2023-07-29T10:30:16;7.95;;;3.20;;
29730;SDS011;16639;51.488;0.152;2023-07-29T10:32:44;7.32;;;3.33;;
29730;SDS011;16639;51.488;0.152;2023-07-29T10:35:13;8.05;;;3.63;;
29730;SDS011;16639;51.488;0.152;2023-07-29T10:37:44;9.23;;;3.25;;
29730;SDS011;16639;51.488;0.152;2023-07-29T10:40:12;7.50;;;2.97;;
29730;SDS011;16639;51.488;0.152;2023-07-29T10:42:58;6.47;;;3.33;;
29730;SDS011;16639;51.488;0.152;2023-07-29T10:45:36;8.02;;;3.60;;
29730;SDS011;16639;51.488;0.152;2023-07-29T10:48:05;7.63;;;2.85;;
29730;SDS011;16639;51.488;0.152;2023-07-29T10:50:35;10.30;;;3.58;;
29730;SDS011;16639;51.488;0.152;2023-07-29T10:53:03;8.18;;;3.17;;
29730;SDS011;16639;51.488;0.152;2023-07-29T10:55:34;10.45;;;4.75;;
29730;SDS011;16639;51.488;0.152;2023-07-29T10:58:15;8.60;;;3.50;;
29730;SDS011;16639;51.488;0.152;2023-07-29T11:00:46;8.77;;;3.50;;
29730;SDS011;16639;51.488;0.152;2023-07-29T11:03:14;7.68;;;3.45;;
29730;SDS011;16639;51.488;0.152;2023-07-29T11:05:44;7.03;;;3.10;;
29730;SDS011;16639;51.488;0.152;2023-07-29T11:11:07;4.55;;;2.88;;
29730;SDS011;16639;51.488;0.152;2023-07-29T11:13:38;7.03;;;3.15;;
29730;SDS011;16639;51.488;0.152;2023-07-29T11:16:06;5.32;;;3.30;;
29730;SDS011;16639;51.488;0.152;2023-07-29T11:18:36;4.40;;;2.75;;
29730;SDS011;16639;51.488;0.152;2023-07-29T11:21:04;7.38;;;3.03;;
29730;SDS011;16639;51.488;0.152;2023-07-29T11:23:32;6.20;;;3.15;;
29730;SDS011;16639;51.488;0.152;2023-07-29T11:26:01;8.77;;;3.13;;
29730;SDS011;16639;51.488;0.152;2023-07-29T11:28:37;7.60;;;2.65;;
29730;SDS011;16639;51.488;0.152;2023-07-29T11:31:05;9.73;;;3.03;;
29730;SDS011;16639;51.488;0.152;2023-07-29T11:33:33;12.63;;;4.28;;
29730;SDS011;16639;51.488;0.152;2023-07-29T11:36:00;7.82;;;3.45;;
29730;SDS011;16639;51.488;0.152;2023-07-29T11:38:28;6.22;;;2.47;;
29730;SDS011;16639;51.488;0.152;2023-07-29T11:40:58;6.90;;;2.72;;
29730;SDS011;16639;51.488;0.152;2023-07-29T11:43:27;8.00;;;3.15;;
29730;SDS011;16639;51.488;0.152;2023-07-29T11:45:55;6.97;;;2.85;;
29730;SDS011;16639;51.488;0.152;2023-07-29T11:48:27;10.98;;;2.42;;
29730;SDS011;16639;51.488;0.152;2023-07-29T11:50:59;6.47;;;2.63;;
29730;SDS011;16639;51.488;0.152;2023-07-29T11:53:30;4.68;;;2.95;;
29730;SDS011;16639;51.488;0.152;2023-07-29T11:55:58;4.97;;;2.58;;
29730;SDS011;16639;51.488;0.152;2023-07-29T11:58:26;6.18;;;2.67;;
29730;SDS011;16639;51.488;0.152;2023-07-29T12:00:53;9.23;;;3.22;;
29730;SDS011;16639;51.488;0.152;2023-07-29T12:03:21;7.22;;;2.63;;
29730;SDS011;16639;51.488;0.152;2023-07-29T12:05:49;6.82;;;3.33;;
29730;SDS011;16639;51.488;0.152;2023-07-29T12:08:17;8.57;;;3.47;;
29730;SDS011;16639;51.488;0.152;2023-07-29T12:10:45;7.13;;;3.28;;
29730;SDS011;16639;51.488;0.152;2023-07-29T12:13:13;8.38;;;3.53;;
29730;SDS011;16639;51.488;0.152;2023-07-29T12:15:41;9.63;;;3.95;;
29730;SDS011;16639;51.488;0.152;2023-07-29T12:18:09;5.72;;;3.00;;
29730;SDS011;16639;51.488;0.152;2023-07-29T12:20:38;11.18;;;2.95;;
29730;SDS011;16639;51.488;0.152;2023-07-29T12:23:05;9.45;;;3.05;;
29730;SDS011;16639;51.488;0.152;2023-07-29T12:25:35;8.27;;;2.30;;
29730;SDS011;16639;51.488;0.152;2023-07-29T12:28:06;6.70;;;2.13;;
29730;SDS011;16639;51.488;0.152;2023-07-29T12:30:41;6.57;;;1.85;;
29730;SDS011;16639;51.488;0.152;2023-07-29T12:33:09;3.58;;;2.25;;
29730;SDS011;16639;51.488;0.152;2023-07-29T12:35:37;4.47;;;1.80;;
29730;SDS011;16639;51.488;0.152;2023-07-29T12:38:04;7.20;;;1.80;;
29730;SDS011;16639;51.488;0.152;2023-07-29T12:40:32;6.68;;;2.00;;
29730;SDS011;16639;51.488;0.152;2023-07-29T12:43:04;5.82;;;2.22;;
29730;SDS011;16639;51.488;0.152;2023-07-29T12:45:35;4.07;;;2.28;;
29730;SDS011;16639;51.488;0.152;2023-07-29T12:48:03;7.82;;;2.72;;
29730;SDS011;16639;51.488;0.152;2023-07-29T12:50:31;3.95;;;2.50;;
29730;SDS011;16639;51.488;0.152;2023-07-29T12:52:59;8.23;;;2.13;;
29730;SDS011;16639;51.488;0.152;2023-07-29T12:55:26;4.22;;;2.63;;
29730;SDS011;16639;51.488;0.152;2023-07-29T12:57:53;8.40;;;2.55;;
29730;SDS011;16639;51.488;0.152;2023-07-29T13:00:21;6.72;;;2.60;;
29730;SDS011;16639;51.488;0.152;2023-07-29T13:02:49;7.70;;;3.25;;
29730;SDS011;16639;51.488;0.152;2023-07-29T13:05:16;10.52;;;4.03;;
29730;SDS011;16639;51.488;0.152;2023-07-29T13:07:44;8.35;;;3.58;;
29730;SDS011;16639;51.488;0.152;2023-07-29T13:10:12;12.15;;;3.17;;
29730;SDS011;16639;51.488;0.152;2023-07-29T13:12:40;10.68;;;3.47;;
29730;SDS011;16639;51.488;0.152;2023-07-29T13:15:07;8.60;;;2.53;;
29730;SDS011;16639;51.488;0.152;2023-07-29T13:17:35;4.30;;;2.35;;
29730;SDS011;16639;51.488;0.152;2023-07-29T13:20:04;9.05;;;3.03;;
29730;SDS011;16639;51.488;0.152;2023-07-29T13:22:32;7.57;;;2.28;;
29730;SDS011;16639;51.488;0.152;2023-07-29T13:25:00;4.32;;;1.90;;
29730;SDS011;16639;51.488;0.152;2023-07-29T13:27:27;4.25;;;1.73;;
29730;SDS011;16639;51.488;0.152;2023-07-29T13:29:56;6.00;;;1.77;;
29730;SDS011;16639;51.488;0.152;2023-07-29T13:32:23;4.90;;;1.58;;
29730;SDS011;16639;51.488;0.152;2023-07-29T13:34:51;4.53;;;2.45;;
29730;SDS011;16639;51.488;0.152;2023-07-29T13:37:18;4.65;;;1.85;;
29730;SDS011;16639;51.488;0.152;2023-07-29T13:39:46;7.80;;;2.83;;
29730;SDS011;16639;51.488;0.152;2023-07-29T13:42:13;3.70;;;2.05;;
29730;SDS011;16639;51.488;0.152;2023-07-29T13:44:41;9.38;;;2.38;;
29730;SDS011;16639;51.488;0.152;2023-07-29T13:47:08;4.45;;;2.40;;
29730;SDS011;16639;51.488;0.152;2023-07-29T13:49:35;6.88;;;2.25;;
29730;SDS011;16639;51.488;0.152;2023-07-29T13:52:03;7.25;;;1.98;;
29730;SDS011;16639;51.488;0.152;2023-07-29T13:54:30;4.60;;;1.80;;
29730;SDS011;16639;51.488;0.152;2023-07-29T13:56:59;3.97;;;1.40;;
29730;SDS011;16639;51.488;0.152;2023-07-29T13:59:26;8.07;;;2.10;;
29730;SDS011;16639;51.488;0.152;2023-07-29T14:01:54;3.75;;;2.22;;
29730;SDS011;16639;51.488;0.152;2023-07-29T14:04:22;8.48;;;1.92;;
29730;SDS011;16639;51.488;0.152;2023-07-29T14:06:49;8.13;;;2.25;;
29730;SDS011;16639;51.488;0.152;2023-07-29T14:09:26;3.55;;;2.10;;
29730;SDS011;16639;51.488;0.152;2023-07-29T14:11:53;8.57;;;1.95;;
29730;SDS011;16639;51.488;0.152;2023-07-29T14:14:21;6.95;;;2.42;;
29730;SDS011;16639;51.488;0.152;2023-07-29T14:16:49;7.10;;;1.92;;
29730;SDS011;16639;51.488;0.152;2023-07-29T14:19:16;8.27;;;2.00;;
29730;SDS011;16639;51.488;0.152;2023-07-29T14:21:44;2.78;;;1.23;;
29730;SDS011;16639;51.488;0.152;2023-07-29T14:24:12;5.05;;;2.00;;
29730;SDS011;16639;51.488;0.152;2023-07-29T14:26:39;3.22;;;1.10;;
29730;SDS011;16639;51.488;0.152;2023-07-29T14:29:07;6.35;;;1.63;;
29730;SDS011;16639;51.488;0.152;2023-07-29T14:31:34;6.10;;;1.75;;
29730;SDS011;16639;51.488;0.152;2023-07-29T14:34:02;3.08;;;1.23;;
29730;SDS011;16639;51.488;0.152;2023-07-29T14:36:29;3.35;;;1.52;;
29730;SDS011;16639;51.488;0.152;2023-07-29T14:38:57;4.00;;;1.42;;
29730;SDS011;16639;51.488;0.152;2023-07-29T14:41:24;6.47;;;1.67;;
29730;SDS011;16639;51.488;0.152;2023-07-29T14:43:52;3.78;;;0.85;;
29730;SDS011;16639;51.488;0.152;2023-07-29T14:46:19;2.13;;;1.00;;
29730;SDS011;16639;51.488;0.152;2023-07-29T14:48:47;3.92;;;1.00;;
29730;SDS011;16639;51.488;0.152;2023-07-29T14:51:14;2.50;;;1.05;;
29730;SDS011;16639;51.488;0.152;2023-07-29T14:53:41;2.25;;;0.75;;
29730;SDS011;16639;51.488;0.152;2023-07-29T14:56:10;4.82;;;1.55;;
29730;SDS011;16639;51.488;0.152;2023-07-29T14:58:37;3.92;;;1.40;;
29730;SDS011;16639;51.488;0.152;2023-07-29T15:01:05;3.90;;;1.08;;
29730;SDS011;16639;51.488;0.152;2023-07-29T15:03:33;5.03;;;1.80;;
29730;SDS011;16639;51.488;0.152;2023-07-29T15:06:01;4.53;;;1.23;;
29730;SDS011;16639;51.488;0.152;2023-07-29T15:08:29;10.05;;;2.25;;